Time;durP1;ratioP1;P1;durP2;ratioP2;P2;SDS_P1;SDS_P2;PMS_P1;PMS_P2;Temp;Humidity;BMP_temperature;BMP_pressure;BME280_temperature;BME280_humidity;BME280_pressure;Samples;Min_cycle;Max_cycle;Signal;HPM_P1;HPM_P2
2023/12/26 00:02:02;;;;;;;2.97;1.60;;;;;;;;;;5774650;28;20433;-88
2023/12/26 00:04:53;;;;;;;3.40;2.42;;;;;;;;;;5776745;28;20070;-88
2023/12/26 00:07:45;;;;;;;4.88;2.40;;;;;;;;;;5774311;28;20705;-89
2023/12/26 00:10:35;;;;;;;6.63;4.53;;;;;;;;;;5775390;28;20122;-89
2023/12/26 00:13:26;;;;;;;6.35;3.35;;;;;;;;;;5790018;28;20054;-88
2023/12/26 00:16:17;;;;;;;3.67;2.72;;;;;;;;;;5773802;28;20058;-89
2023/12/26 00:19:08;;;;;;;4.22;2.92;;;;;;;;;;5775502;28;20055;-88
2023/12/26 00:21:59;;;;;;;3.40;2.35;;;;;;;;;;5775685;28;20592;-89
2023/12/26 00:24:50;;;;;;;3.95;2.47;;;;;;;;;;5775453;28;20565;-88
2023/12/26 00:27:42;;;;;;;4.18;2.75;;;;;;;;;;5775385;28;20039;-89
2023/12/26 00:30:33;;;;;;;2.35;2.10;;;;;;;;;;5775244;28;20564;-89
2023/12/26 00:33:24;;;;;;;3.78;2.13;;;;;;;;;;5789524;28;20130;-89
2023/12/26 00:36:18;;;;;;;2.13;1.92;;;;;;;;;;5784917;28;20417;-88
2023/12/26 00:39:11;;;;;;;2.15;1.88;;;;;;;;;;5773549;28;20138;-89
2023/12/26 00:42:02;;;;;;;7.30;4.60;;;;;;;;;;5774690;28;20054;-87
2023/12/26 00:44:53;;;;;;;6.57;3.47;;;;;;;;;;5789795;28;20506;-88
2023/12/26 00:47:44;;;;;;;4.75;2.95;;;;;;;;;;5774442;28;20051;-88
2023/12/26 00:50:41;;;;;;;2.85;2.10;;;;;;;;;;5789256;28;20051;-88
2023/12/26 00:53:31;;;;;;;4.70;3.70;;;;;;;;;;5774497;28;20098;-88
2023/12/26 00:56:23;;;;;;;4.47;3.25;;;;;;;;;;5774431;28;20456;-88
2023/12/26 00:59:14;;;;;;;6.72;3.38;;;;;;;;;;5789043;28;20048;-88
2023/12/26 01:02:05;;;;;;;5.45;3.30;;;;;;;;;;5779686;28;20190;-88
2023/12/26 01:04:56;;;;;;;3.55;2.75;;;;;;;;;;5795770;28;20495;-88
2023/12/26 01:07:47;;;;;;;3.88;3.47;;;;;;;;;;5774351;28;20720;-88
2023/12/26 01:10:38;;;;;;;4.43;3.22;;;;;;;;;;5774119;28;20043;-88
2023/12/26 01:13:34;;;;;;;5.80;2.08;;;;;;;;;;5773914;28;20063;-86
2023/12/26 01:16:27;;;;;;;2.80;2.42;;;;;;;;;;5788630;28;20039;-87
2023/12/26 01:19:18;;;;;;;4.25;2.78;;;;;;;;;;5772678;28;20134;-87
2023/12/26 01:22:09;;;;;;;5.50;1.92;;;;;;;;;;5788427;28;20063;-88
2023/12/26 01:25:00;;;;;;;1.77;1.63;;;;;;;;;;5774249;28;20069;-88
2023/12/26 01:27:51;;;;;;;3.90;2.78;;;;;;;;;;5788673;28;20047;-88
2023/12/26 01:30:42;;;;;;;2.50;1.60;;;;;;;;;;5788501;28;20054;-88
2023/12/26 01:33:33;;;;;;;3.17;2.20;;;;;;;;;;5788012;28;20039;-87
2023/12/26 01:36:24;;;;;;;7.75;2.55;;;;;;;;;;5788129;28;20050;-88
2023/12/26 01:39:16;;;;;;;2.00;1.45;;;;;;;;;;5788167;28;20051;-88
2023/12/26 01:42:06;;;;;;;4.68;1.60;;;;;;;;;;5787992;28;20134;-87
2023/12/26 01:44:57;;;;;;;10.15;2.78;;;;;;;;;;5788509;28;20058;-88
2023/12/26 01:47:53;;;;;;;5.03;1.83;;;;;;;;;;5787854;28;20528;-87
2023/12/26 01:50:44;;;;;;;3.78;2.83;;;;;;;;;;5787637;28;20054;-87
2023/12/26 01:53:38;;;;;;;1.63;1.30;;;;;;;;;;5773063;28;20061;-87
2023/12/26 01:56:30;;;;;;;2.70;2.20;;;;;;;;;;5787561;28;20505;-87
2023/12/26 01:59:21;;;;;;;1.92;0.90;;;;;;;;;;5772335;28;20062;-88
2023/12/26 02:02:14;;;;;;;2.55;2.25;;;;;;;;;;5787405;28;20055;-87
2023/12/26 02:05:05;;;;;;;1.23;0.98;;;;;;;;;;5772696;28;20444;-87
2023/12/26 02:07:56;;;;;;;5.43;2.78;;;;;;;;;;5787944;28;20036;-87
2023/12/26 02:10:49;;;;;;;1.38;1.27;;;;;;;;;;5787374;28;20043;-87
2023/12/26 02:13:40;;;;;;;1.23;0.68;;;;;;;;;;5772569;28;20126;-88
2023/12/26 02:16:35;;;;;;;2.95;2.15;;;;;;;;;;5772441;28;20529;-88
2023/12/26 02:19:26;;;;;;;1.20;0.90;;;;;;;;;;5772700;28;20421;-87
2023/12/26 02:22:17;;;;;;;0.77;0.77;;;;;;;;;;5787142;28;20063;-87
2023/12/26 02:25:09;;;;;;;0.60;0.52;;;;;;;;;;5772437;28;20526;-86
2023/12/26 02:28:02;;;;;;;1.75;1.50;;;;;;;;;;5787570;28;20399;-87
2023/12/26 02:30:54;;;;;;;1.45;1.20;;;;;;;;;;5786895;28;20062;-87
2023/12/26 02:33:47;;;;;;;1.27;1.15;;;;;;;;;;5786856;28;20170;-87
2023/12/26 02:36:38;;;;;;;3.53;1.50;;;;;;;;;;5786788;28;20042;-87
2023/12/26 02:39:29;;;;;;;2.03;0.88;;;;;;;;;;5786833;28;20050;-87
2023/12/26 02:42:22;;;;;;;0.50;0.50;;;;;;;;;;5772128;28;20138;-87
2023/12/26 02:45:14;;;;;;;0.30;0.30;;;;;;;;;;5770893;28;20058;-86
2023/12/26 02:48:05;;;;;;;1.60;1.20;;;;;;;;;;5786491;28;20141;-87
2023/12/26 02:50:56;;;;;;;6.25;1.55;;;;;;;;;;5786995;28;20426;-86
2023/12/26 02:53:47;;;;;;;1.70;0.68;;;;;;;;;;5770576;28;20059;-87
2023/12/26 02:56:38;;;;;;;0.40;0.40;;;;;;;;;;5770585;28;20051;-87
2023/12/26 02:59:29;;;;;;;0.45;0.45;;;;;;;;;;5786394;28;20113;-86
2023/12/26 03:02:20;;;;;;;0.68;0.68;;;;;;;;;;5786387;28;20053;-87
2023/12/26 03:05:11;;;;;;;2.67;1.05;;;;;;;;;;5786892;28;20055;-85
2023/12/26 03:08:02;;;;;;;0.65;0.52;;;;;;;;;;5787366;28;20058;-85
2023/12/26 03:10:53;;;;;;;0.30;0.30;;;;;;;;;;5787945;28;20053;-86
2023/12/26 03:13:43;;;;;;;2.65;0.95;;;;;;;;;;5771528;28;20050;-86
2023/12/26 03:16:34;;;;;;;0.13;0.13;;;;;;;;;;5771456;28;20126;-85
2023/12/26 03:19:25;;;;;;;2.08;0.77;;;;;;;;;;5786155;28;20047;-86
2023/12/26 03:22:18;;;;;;;0.38;0.38;;;;;;;;;;5771671;28;20054;-86
2023/12/26 03:25:09;;;;;;;0.20;0.20;;;;;;;;;;5771404;28;20066;-86
2023/12/26 03:28:00;;;;;;;0.90;0.80;;;;;;;;;;5786626;28;20398;-85
2023/12/26 03:30:51;;;;;;;0.93;0.68;;;;;;;;;;5786297;28;20062;-86
2023/12/26 03:33:42;;;;;;;0.25;0.25;;;;;;;;;;5770078;28;20142;-86
2023/12/26 03:36:33;;;;;;;0.55;0.55;;;;;;;;;;5771075;28;20504;-86
2023/12/26 03:39:23;;;;;;;0.30;0.20;;;;;;;;;;5785838;28;20047;-85
2023/12/26 03:42:14;;;;;;;0.40;0.40;;;;;;;;;;5785996;28;20519;-86
2023/12/26 03:45:06;;;;;;;0.35;0.30;;;;;;;;;;5785761;28;20067;-84
2023/12/26 03:47:57;;;;;;;0.77;0.57;;;;;;;;;;5786487;28;20524;-86
2023/12/26 03:50:48;;;;;;;2.33;1.38;;;;;;;;;;5785438;28;20051;-86
2023/12/26 03:53:40;;;;;;;0.57;0.57;;;;;;;;;;5785619;28;20051;-85
2023/12/26 03:56:32;;;;;;;0.75;0.70;;;;;;;;;;5769533;28;20062;-85
2023/12/26 03:59:22;;;;;;;0.52;0.50;;;;;;;;;;5785588;28;20072;-86
2023/12/26 04:02:13;;;;;;;0.52;0.52;;;;;;;;;;5771109;28;20062;-86
2023/12/26 04:05:05;;;;;;;0.90;0.43;;;;;;;;;;5785567;28;20048;-85
2023/12/26 04:07:56;;;;;;;0.77;0.75;;;;;;;;;;5786199;28;20055;-86
2023/12/26 04:10:48;;;;;;;1.55;0.60;;;;;;;;;;5785692;28;20043;-86
2023/12/26 04:13:39;;;;;;;1.05;0.90;;;;;;;;;;5770901;28;20066;-85
2023/12/26 04:16:30;;;;;;;0.82;0.82;;;;;;;;;;5785323;28;20051;-86
2023/12/26 04:19:22;;;;;;;2.05;0.88;;;;;;;;;;5785143;28;20079;-85
2023/12/26 04:22:14;;;;;;;0.57;0.57;;;;;;;;;;5785583;28;20421;-85
2023/12/26 04:25:06;;;;;;;1.35;1.10;;;;;;;;;;5789148;28;20051;-85
2023/12/26 04:27:57;;;;;;;1.27;1.02;;;;;;;;;;5774066;28;20054;-86
2023/12/26 04:30:48;;;;;;;0.50;0.47;;;;;;;;;;5773590;28;20062;-86
2023/12/26 04:33:39;;;;;;;0.50;0.25;;;;;;;;;;5789122;28;20039;-85
2023/12/26 04:36:37;;;;;;;0.55;0.55;;;;;;;;;;5773174;28;20083;-86
2023/12/26 04:39:28;;;;;;;0.52;0.52;;;;;;;;;;5788834;28;20629;-86
2023/12/26 04:42:18;;;;;;;0.73;0.60;;;;;;;;;;5774566;28;20501;-86
2023/12/26 04:45:11;;;;;;;0.47;0.47;;;;;;;;;;5789073;28;20074;-85
2023/12/26 04:48:05;;;;;;;0.40;0.40;;;;;;;;;;5789041;28;20047;-85
2023/12/26 04:50:56;;;;;;;0.40;0.40;;;;;;;;;;5774666;28;20073;-86
2023/12/26 04:53:49;;;;;;;0.75;0.75;;;;;;;;;;5774443;28;20050;-85
2023/12/26 04:56:43;;;;;;;1.17;1.08;;;;;;;;;;5772922;28;20055;-86
2023/12/26 04:59:37;;;;;;;0.57;0.40;;;;;;;;;;5772758;28;20560;-85
2023/12/26 05:02:28;;;;;;;6.03;0.63;;;;;;;;;;5774206;28;20047;-85
2023/12/26 05:05:19;;;;;;;0.43;0.40;;;;;;;;;;5788692;28;20059;-85
2023/12/26 05:08:12;;;;;;;2.92;1.25;;;;;;;;;;5772697;28;20059;-85
2023/12/26 05:11:04;;;;;;;0.88;0.73;;;;;;;;;;5788704;28;20528;-87
2023/12/26 05:13:55;;;;;;;0.47;0.47;;;;;;;;;;5773197;28;20053;-85
2023/12/26 05:16:48;;;;;;;0.30;0.30;;;;;;;;;;5788952;28;20050;-85
2023/12/26 05:19:39;;;;;;;0.40;0.40;;;;;;;;;;5788112;28;20051;-85
2023/12/26 05:22:30;;;;;;;2.55;0.57;;;;;;;;;;5788323;28;20050;-85
2023/12/26 05:25:23;;;;;;;0.40;0.40;;;;;;;;;;5773904;28;20394;-84
2023/12/26 05:28:14;;;;;;;0.50;0.50;;;;;;;;;;5783752;28;20529;-85
2023/12/26 05:31:05;;;;;;;0.73;0.63;;;;;;;;;;5788183;28;20057;-86
2023/12/26 05:33:55;;;;;;;0.32;0.32;;;;;;;;;;5773488;28;20101;-85
2023/12/26 05:36:46;;;;;;;0.45;0.45;;;;;;;;;;5772688;28;20043;-85
2023/12/26 05:39:37;;;;;;;1.75;0.88;;;;;;;;;;5787801;28;20050;-84
2023/12/26 05:42:28;;;;;;;0.55;0.55;;;;;;;;;;5788103;28;20044;-85
2023/12/26 05:45:19;;;;;;;0.50;0.50;;;;;;;;;;5787928;28;20501;-85
2023/12/26 05:48:10;;;;;;;2.90;0.60;;;;;;;;;;5771749;28;20415;-84
2023/12/26 05:51:01;;;;;;;0.43;0.38;;;;;;;;;;5787642;28;20051;-84
2023/12/26 05:53:52;;;;;;;0.55;0.55;;;;;;;;;;5788165;28;20410;-84
2023/12/26 05:56:46;;;;;;;0.45;0.40;;;;;;;;;;5787959;28;20601;-85
2023/12/26 05:59:37;;;;;;;0.43;0.43;;;;;;;;;;5772812;28;20058;-84
2023/12/26 06:02:27;;;;;;;0.57;0.57;;;;;;;;;;5787503;28;20048;-84
2023/12/26 06:05:18;;;;;;;0.45;0.45;;;;;;;;;;5787356;28;20043;-85
2023/12/26 06:08:09;;;;;;;0.65;0.65;;;;;;;;;;5771475;28;20066;-84
2023/12/26 06:11:00;;;;;;;0.50;0.50;;;;;;;;;;5787793;28;20053;-85
2023/12/26 06:13:51;;;;;;;0.20;0.20;;;;;;;;;;5771687;28;20051;-84
2023/12/26 06:16:41;;;;;;;0.30;0.30;;;;;;;;;;5787505;28;20055;-84
2023/12/26 06:19:32;;;;;;;0.60;0.60;;;;;;;;;;5786938;28;20059;-84
2023/12/26 06:22:23;;;;;;;0.75;0.60;;;;;;;;;;5772334;28;20062;-84
2023/12/26 06:25:14;;;;;;;0.70;0.65;;;;;;;;;;5787141;28;20051;-86
2023/12/26 06:28:05;;;;;;;0.40;0.40;;;;;;;;;;5772750;28;20058;-85
2023/12/26 06:30:56;;;;;;;0.47;0.47;;;;;;;;;;5787285;28;20059;-84
2023/12/26 06:33:47;;;;;;;0.22;0.22;;;;;;;;;;5772152;28;20051;-84
2023/12/26 06:36:38;;;;;;;1.30;0.70;;;;;;;;;;5786621;28;20447;-85
2023/12/26 06:39:29;;;;;;;0.52;0.52;;;;;;;;;;5786848;28;20391;-84
2023/12/26 06:42:19;;;;;;;1.00;0.68;;;;;;;;;;5772042;28;20050;-84
2023/12/26 06:45:10;;;;;;;0.22;0.22;;;;;;;;;;5786821;28;20548;-83
2023/12/26 06:48:01;;;;;;;0.43;0.43;;;;;;;;;;5786578;28;20062;-84
2023/12/26 06:50:52;;;;;;;0.55;0.55;;;;;;;;;;5772365;28;20079;-86
2023/12/26 06:53:43;;;;;;;0.52;0.47;;;;;;;;;;5786633;28;20051;-84
2023/12/26 06:56:34;;;;;;;0.55;0.52;;;;;;;;;;5786481;28;20701;-84
2023/12/26 06:59:25;;;;;;;8.68;0.73;;;;;;;;;;5786547;28;20047;-85
2023/12/26 07:02:16;;;;;;;0.43;0.40;;;;;;;;;;5786581;28;20520;-86
2023/12/26 07:05:07;;;;;;;0.43;0.43;;;;;;;;;;5786446;28;20047;-86
2023/12/26 07:07:58;;;;;;;0.15;0.15;;;;;;;;;;5771201;28;20054;-84
2023/12/26 07:10:49;;;;;;;0.47;0.47;;;;;;;;;;5786530;28;20051;-85
2023/12/26 07:13:40;;;;;;;1.00;0.50;;;;;;;;;;5771799;28;20409;-86
2023/12/26 07:16:33;;;;;;;0.65;0.22;;;;;;;;;;5771865;28;20043;-85
2023/12/26 07:19:24;;;;;;;2.00;0.77;;;;;;;;;;5786410;28;20109;-86
2023/12/26 07:22:15;;;;;;;0.77;0.52;;;;;;;;;;5786136;28;20074;-83
2023/12/26 07:25:06;;;;;;;0.75;0.60;;;;;;;;;;5771901;28;20071;-87
2023/12/26 07:27:57;;;;;;;2.00;0.98;;;;;;;;;;5771960;28;20055;-83
2023/12/26 07:30:47;;;;;;;2.95;2.47;;;;;;;;;;5786121;28;20449;-83
2023/12/26 07:33:38;;;;;;;5.93;1.98;;;;;;;;;;5786245;28;20047;-84
2023/12/26 07:36:29;;;;;;;2.85;1.75;;;;;;;;;;5771325;28;20144;-83
2023/12/26 07:39:20;;;;;;;1.80;1.08;;;;;;;;;;5770009;28;20061;-85
2023/12/26 07:42:11;;;;;;;5.22;2.75;;;;;;;;;;5787260;28;20051;-84
2023/12/26 07:45:02;;;;;;;5.03;3.63;;;;;;;;;;5772022;28;20057;-83
2023/12/26 07:47:53;;;;;;;1.98;1.83;;;;;;;;;;5787506;28;20528;-86
2023/12/26 07:50:44;;;;;;;2.03;1.02;;;;;;;;;;5771502;28;20055;-85
2023/12/26 07:53:35;;;;;;;0.82;0.82;;;;;;;;;;5785549;28;20083;-86
2023/12/26 07:56:26;;;;;;;0.55;0.55;;;;;;;;;;5786317;28;20501;-84
2023/12/26 07:59:17;;;;;;;12.25;1.67;;;;;;;;;;5788537;28;20054;-84
2023/12/26 08:02:08;;;;;;;1.05;0.77;;;;;;;;;;5774722;28;20047;-84
2023/12/26 08:04:59;;;;;;;0.95;0.68;;;;;;;;;;5776554;28;20055;-83
2023/12/26 08:07:50;;;;;;;1.58;1.13;;;;;;;;;;5790663;28;20043;-85
2023/12/26 08:10:42;;;;;;;1.00;0.82;;;;;;;;;;5774040;28;20405;-87
2023/12/26 08:13:33;;;;;;;1.23;1.10;;;;;;;;;;5775307;28;20044;-83
2023/12/26 08:16:24;;;;;;;1.02;0.90;;;;;;;;;;5775068;28;20047;-84
2023/12/26 08:19:14;;;;;;;9.10;5.40;;;;;;;;;;5789941;28;20051;-84
2023/12/26 08:22:09;;;;;;;6.20;2.88;;;;;;;;;;5789368;28;20051;-86
2023/12/26 08:25:00;;;;;;;9.30;4.32;;;;;;;;;;5790383;28;20051;-84
2023/12/26 08:27:50;;;;;;;3.33;1.85;;;;;;;;;;5775435;28;20043;-85
2023/12/26 08:30:41;;;;;;;5.78;2.30;;;;;;;;;;5789850;28;20504;-83
2023/12/26 08:33:35;;;;;;;1.40;1.25;;;;;;;;;;5773382;28;20047;-83
2023/12/26 08:36:26;;;;;;;1.05;0.98;;;;;;;;;;5789122;28;20047;-83
2023/12/26 08:39:17;;;;;;;0.85;0.85;;;;;;;;;;5789330;28;20055;-84
2023/12/26 08:42:09;;;;;;;3.33;2.17;;;;;;;;;;5774706;28;20055;-85
2023/12/26 08:44:59;;;;;;;8.68;3.20;;;;;;;;;;5789802;28;20051;-84
2023/12/26 08:47:52;;;;;;;4.15;2.90;;;;;;;;;;5789523;28;20062;-83
2023/12/26 08:50:43;;;;;;;3.38;1.85;;;;;;;;;;5773319;28;20524;-83
2023/12/26 08:53:34;;;;;;;6.75;4.90;;;;;;;;;;5789095;28;20075;-83
2023/12/26 08:56:25;;;;;;;3.20;2.20;;;;;;;;;;5789234;28;20044;-82
2023/12/26 08:59:19;;;;;;;3.80;3.28;;;;;;;;;;5774094;28;20058;-84
2023/12/26 09:02:10;;;;;;;4.18;3.50;;;;;;;;;;5789165;28;20684;-83
2023/12/26 09:05:02;;;;;;;4.70;1.95;;;;;;;;;;5788898;28;20055;-81
2023/12/26 09:07:53;;;;;;;3.35;1.88;;;;;;;;;;5774691;28;20059;-82
2023/12/26 09:10:44;;;;;;;9.75;3.33;;;;;;;;;;5772559;28;20047;-82
2023/12/26 09:13:35;;;;;;;2.97;1.40;;;;;;;;;;5788687;28;20098;-82
2023/12/26 09:16:26;;;;;;;1.48;1.30;;;;;;;;;;5785793;28;20043;-82
2023/12/26 09:19:17;;;;;;;2.95;1.92;;;;;;;;;;5773090;28;20090;-83
2023/12/26 09:22:08;;;;;;;1.92;1.50;;;;;;;;;;5788712;28;20103;-83
2023/12/26 09:24:58;;;;;;;1.50;0.90;;;;;;;;;;5789234;28;20062;-83
2023/12/26 09:27:49;;;;;;;0.77;0.73;;;;;;;;;;5774237;28;20126;-82
2023/12/26 09:30:40;;;;;;;5.35;2.40;;;;;;;;;;5788512;28;20065;-84
2023/12/26 09:33:31;;;;;;;2.22;2.03;;;;;;;;;;5773643;28;20050;-82
2023/12/26 09:36:22;;;;;;;1.83;1.00;;;;;;;;;;5788221;28;20055;-84
2023/12/26 09:39:13;;;;;;;1.95;0.88;;;;;;;;;;5772252;28;20740;-82
2023/12/26 09:42:08;;;;;;;1.13;0.82;;;;;;;;;;5773625;28;20055;-82
2023/12/26 09:44:59;;;;;;;5.80;2.03;;;;;;;;;;5788318;28;20055;-83
2023/12/26 09:47:50;;;;;;;1.85;1.40;;;;;;;;;;5788212;28;20134;-82
2023/12/26 09:50:42;;;;;;;0.68;0.65;;;;;;;;;;5788230;28;20053;-82
2023/12/26 09:53:34;;;;;;;0.43;0.43;;;;;;;;;;5773399;28;20481;-84
2023/12/26 09:56:27;;;;;;;1.67;1.38;;;;;;;;;;5773452;28;20047;-82
2023/12/26 09:59:19;;;;;;;2.65;2.08;;;;;;;;;;5787665;28;20051;-82
2023/12/26 10:02:14;;;;;;;1.55;1.23;;;;;;;;;;5756280;28;20058;-82
2023/12/26 10:05:05;;;;;;;1.70;1.10;;;;;;;;;;5773417;28;20059;-83
2023/12/26 10:07:56;;;;;;;2.28;1.67;;;;;;;;;;5788084;28;20047;-82
2023/12/26 10:10:47;;;;;;;2.35;1.73;;;;;;;;;;5787696;28;20047;-83
2023/12/26 10:13:50;;;;;;;2.35;0.90;;;;;;;;;;5772980;28;20039;-83
2023/12/26 10:16:41;;;;;;;1.42;1.33;;;;;;;;;;5773081;28;20516;-83
2023/12/26 10:19:32;;;;;;;5.38;3.72;;;;;;;;;;5772706;28;20042;-82
2023/12/26 10:22:25;;;;;;;0.77;0.68;;;;;;;;;;5772298;28;20061;-83
2023/12/26 10:25:17;;;;;;;3.90;1.75;;;;;;;;;;5787584;28;20047;-82
2023/12/26 10:28:07;;;;;;;1.17;1.05;;;;;;;;;;5771366;28;20065;-83
2023/12/26 10:31:17;;;;;;;3.08;2.20;;;;;;;;;;5787971;28;20520;-83
2023/12/26 10:34:29;;;;;;;3.00;1.33;;;;;;;;;;5786290;28;20087;-82
2023/12/26 10:37:22;;;;;;;5.45;2.38;;;;;;;;;;5755711;28;20051;-83
2023/12/26 10:40:14;;;;;;;3.72;1.73;;;;;;;;;;5771427;28;20059;-83
2023/12/26 10:43:05;;;;;;;13.20;3.15;;;;;;;;;;5770816;28;20058;-82
2023/12/26 10:45:57;;;;;;;7.65;3.13;;;;;;;;;;5771460;28;20424;-83
2023/12/26 10:48:50;;;;;;;4.47;1.40;;;;;;;;;;5787005;28;20425;-82
2023/12/26 10:51:43;;;;;;;1.58;1.35;;;;;;;;;;5786427;28;20147;-82
2023/12/26 10:54:38;;;;;;;3.53;1.00;;;;;;;;;;5772040;28;20102;-82
2023/12/26 10:57:32;;;;;;;5.05;1.58;;;;;;;;;;5770914;28;20047;-82
2023/12/26 11:00:50;;;;;;;2.67;1.60;;;;;;;;;;5786427;28;20047;-82
2023/12/26 13:52:42;;;;;;;3.20;2.22;;;;;;;;;;5772723;28;20047;-83
2023/12/26 13:56:29;;;;;;;3.92;1.52;;;;;;;;;;5771754;28;20122;-83
2023/12/26 14:00:16;;;;;;;2.88;1.98;;;;;;;;;;5772483;28;20386;-82
2023/12/26 14:04:03;;;;;;;12.32;6.85;;;;;;;;;;5787008;28;20051;-82
2023/12/26 14:07:55;;;;;;;8.20;3.67;;;;;;;;;;5787744;28;20055;-82
2023/12/26 14:11:42;;;;;;;6.57;3.63;;;;;;;;;;5786955;28;20043;-83
2023/12/26 14:15:29;;;;;;;5.70;2.78;;;;;;;;;;5772449;28;20465;-82
2023/12/26 14:19:16;;;;;;;11.70;5.72;;;;;;;;;;5772110;28;20454;-82
2023/12/26 14:23:03;;;;;;;4.45;2.30;;;;;;;;;;5772311;28;20054;-82
2023/12/26 14:26:50;;;;;;;6.05;3.40;;;;;;;;;;5772764;28;20059;-83
2023/12/26 14:30:37;;;;;;;8.82;4.97;;;;;;;;;;5771868;28;20039;-82
2023/12/26 14:34:24;;;;;;;5.35;3.92;;;;;;;;;;5771917;28;20043;-83
2023/12/26 14:38:12;;;;;;;5.13;3.05;;;;;;;;;;5771824;28;20130;-82
2023/12/26 14:41:58;;;;;;;10.13;5.00;;;;;;;;;;5786958;28;20410;-81
2023/12/26 14:45:45;;;;;;;6.00;3.78;;;;;;;;;;5786735;28;20446;-82
2023/12/26 14:49:32;;;;;;;13.27;7.82;;;;;;;;;;5771686;28;20046;-82
2023/12/26 14:53:19;;;;;;;10.90;5.28;;;;;;;;;;5771716;28;20050;-83
2023/12/26 14:57:06;;;;;;;7.53;4.18;;;;;;;;;;5771429;28;20137;-81
2023/12/26 15:00:53;;;;;;;11.32;5.05;;;;;;;;;;5771832;28;20051;-83
2023/12/26 15:03:44;;;;;;;5.25;3.30;;;;;;;;;;5786031;28;20039;-82
2023/12/26 15:06:35;;;;;;;3.53;1.58;;;;;;;;;;5770419;28;20049;-84
2023/12/26 15:09:27;;;;;;;5.07;2.88;;;;;;;;;;5787603;28;20042;-83
2023/12/26 15:12:18;;;;;;;4.85;3.20;;;;;;;;;;5785829;28;20055;-83
2023/12/26 15:15:09;;;;;;;4.32;3.08;;;;;;;;;;5769993;28;20471;-82
2023/12/26 15:18:00;;;;;;;7.18;3.55;;;;;;;;;;5770151;28;20055;-80
2023/12/26 15:20:51;;;;;;;5.43;2.75;;;;;;;;;;5769302;28;20400;-82
2023/12/26 15:23:44;;;;;;;10.80;6.18;;;;;;;;;;5771501;28;20501;-82
2023/12/26 15:26:36;;;;;;;16.73;6.72;;;;;;;;;;5769204;28;20537;-82
2023/12/26 15:29:26;;;;;;;17.60;7.88;;;;;;;;;;5768423;28;20058;-82
2023/12/26 15:32:17;;;;;;;9.77;6.25;;;;;;;;;;5769646;28;20523;-81
2023/12/26 15:35:08;;;;;;;8.88;4.68;;;;;;;;;;5768802;28;20055;-81
2023/12/26 15:37:59;;;;;;;11.13;5.70;;;;;;;;;;5770657;28;20058;-82
2023/12/26 15:40:50;;;;;;;9.07;4.82;;;;;;;;;;5771090;28;20106;-82
2023/12/26 15:43:41;;;;;;;5.88;3.92;;;;;;;;;;5769926;28;20043;-82
2023/12/26 15:46:32;;;;;;;5.57;4.72;;;;;;;;;;5771310;28;20101;-82
2023/12/26 15:49:23;;;;;;;14.10;6.72;;;;;;;;;;5754226;28;20483;-82
2023/12/26 15:52:13;;;;;;;7.30;5.78;;;;;;;;;;5780789;28;20055;-82
2023/12/26 15:55:05;;;;;;;14.40;6.22;;;;;;;;;;5770020;28;20053;-82
2023/12/26 15:57:56;;;;;;;13.77;6.05;;;;;;;;;;5771644;28;20059;-82
2023/12/26 16:00:47;;;;;;;13.07;7.90;;;;;;;;;;5769829;28;20046;-82
2023/12/26 16:03:37;;;;;;;10.50;5.75;;;;;;;;;;5770940;28;20133;-82
2023/12/26 16:06:28;;;;;;;13.35;7.55;;;;;;;;;;5769755;28;20051;-82
2023/12/26 16:09:19;;;;;;;11.85;6.95;;;;;;;;;;5769475;28;20051;-82
2023/12/26 16:12:10;;;;;;;12.50;8.25;;;;;;;;;;5753848;28;20152;-82
2023/12/26 16:15:01;;;;;;;24.40;7.60;;;;;;;;;;5769572;28;20194;-82
2023/12/26 16:17:52;;;;;;;13.63;7.80;;;;;;;;;;5770024;28;20057;-83
2023/12/26 16:20:43;;;;;;;10.30;8.20;;;;;;;;;;5772970;28;20470;-83
2023/12/26 16:23:34;;;;;;;26.17;7.85;;;;;;;;;;5787419;28;20112;-82
2023/12/26 16:26:26;;;;;;;8.77;6.55;;;;;;;;;;5758015;28;20083;-83
2023/12/26 16:29:18;;;;;;;16.02;6.57;;;;;;;;;;5773881;28;20058;-83
2023/12/26 16:32:13;;;;;;;5.18;3.17;;;;;;;;;;5783834;28;20051;-83
2023/12/26 16:35:05;;;;;;;2.72;2.08;;;;;;;;;;5789738;28;20568;-84
2023/12/26 16:37:56;;;;;;;7.03;3.90;;;;;;;;;;5774214;28;20536;-87
2023/12/26 16:40:47;;;;;;;3.50;3.17;;;;;;;;;;5773401;28;20043;-86
2023/12/26 16:43:37;;;;;;;3.88;2.70;;;;;;;;;;5773270;28;20058;-88
2023/12/26 16:46:29;;;;;;;7.90;3.78;;;;;;;;;;5773501;28;20047;-87
2023/12/26 16:49:25;;;;;;;2.03;1.42;;;;;;;;;;5758694;28;20086;-87
2023/12/26 16:52:17;;;;;;;3.33;1.77;;;;;;;;;;5774480;28;20058;-87
2023/12/26 16:55:08;;;;;;;1.42;1.05;;;;;;;;;;5773110;28;20051;-86
2023/12/26 16:57:58;;;;;;;6.95;3.03;;;;;;;;;;5774830;28;20078;-86
2023/12/26 17:00:49;;;;;;;5.68;2.47;;;;;;;;;;5773372;28;20075;-86
2023/12/26 17:03:40;;;;;;;3.63;1.20;;;;;;;;;;5773202;28;20129;-86
2023/12/26 17:06:32;;;;;;;2.85;1.73;;;;;;;;;;5772937;28;20047;-86
2023/12/26 17:09:23;;;;;;;2.50;1.90;;;;;;;;;;5774318;28;20437;-86
2023/12/26 17:12:14;;;;;;;8.13;5.13;;;;;;;;;;5774189;28;20051;-86
2023/12/26 17:15:06;;;;;;;5.07;2.83;;;;;;;;;;5772811;28;20481;-85
2023/12/26 17:17:57;;;;;;;2.13;1.73;;;;;;;;;;5789009;28;20524;-86
2023/12/26 17:20:48;;;;;;;2.50;2.30;;;;;;;;;;5772571;28;20087;-87
2023/12/26 17:23:39;;;;;;;3.65;2.92;;;;;;;;;;5772596;28;20047;-86
2023/12/26 17:26:29;;;;;;;7.05;2.80;;;;;;;;;;5773862;28;20055;-86
2023/12/26 17:29:20;;;;;;;8.88;4.20;;;;;;;;;;5756561;28;20067;-85
2023/12/26 17:32:11;;;;;;;5.45;3.10;;;;;;;;;;5756516;28;20051;-86
2023/12/26 17:35:04;;;;;;;5.50;2.58;;;;;;;;;;5772196;28;20516;-84
2023/12/26 17:37:55;;;;;;;2.30;1.90;;;;;;;;;;5781539;28;20062;-85
2023/12/26 17:40:47;;;;;;;5.38;2.60;;;;;;;;;;5771932;28;20799;-85
2023/12/26 17:43:38;;;;;;;4.07;2.30;;;;;;;;;;5756156;28;20047;-85
2023/12/26 17:46:29;;;;;;;4.78;2.55;;;;;;;;;;5772016;28;20402;-85
2023/12/26 17:49:21;;;;;;;2.08;1.48;;;;;;;;;;5755896;28;20059;-85
2023/12/26 17:52:12;;;;;;;1.98;1.73;;;;;;;;;;5771852;28;20055;-85
2023/12/26 17:55:04;;;;;;;4.68;2.63;;;;;;;;;;5771746;28;20122;-84
2023/12/26 17:57:56;;;;;;;11.20;2.00;;;;;;;;;;5773444;28;20055;-85
2023/12/26 18:00:47;;;;;;;2.55;1.95;;;;;;;;;;5771623;28;20239;-85
2023/12/26 18:03:38;;;;;;;1.33;1.23;;;;;;;;;;5772666;28;20102;-85
2023/12/26 18:06:31;;;;;;;2.30;1.67;;;;;;;;;;5773052;28;20054;-84
2023/12/26 18:09:22;;;;;;;2.00;1.58;;;;;;;;;;5772786;28;20490;-84
2023/12/26 18:12:13;;;;;;;4.25;1.50;;;;;;;;;;5771357;28;20062;-84
2023/12/26 18:15:05;;;;;;;1.58;1.42;;;;;;;;;;5755473;28;20051;-83
2023/12/26 18:17:56;;;;;;;0.73;0.73;;;;;;;;;;5773021;28;20055;-84
2023/12/26 18:20:47;;;;;;;3.92;2.08;;;;;;;;;;5772470;28;20055;-84
2023/12/26 18:23:38;;;;;;;2.58;1.58;;;;;;;;;;5771146;28;20421;-84
2023/12/26 18:26:29;;;;;;;2.33;1.95;;;;;;;;;;5772676;28;20158;-83
2023/12/26 18:29:20;;;;;;;2.00;1.58;;;;;;;;;;5772367;28;20048;-84
2023/12/26 18:32:11;;;;;;;2.80;1.38;;;;;;;;;;5772495;28;20051;-83
2023/12/26 18:35:02;;;;;;;3.72;2.63;;;;;;;;;;5772439;28;20051;-84
2023/12/26 18:37:53;;;;;;;3.38;1.70;;;;;;;;;;5771360;28;20047;-84
2023/12/26 18:40:45;;;;;;;1.75;1.63;;;;;;;;;;5770633;28;20054;-84
2023/12/26 18:43:37;;;;;;;1.55;1.25;;;;;;;;;;5770292;28;20412;-83
2023/12/26 18:46:27;;;;;;;5.35;1.98;;;;;;;;;;5770791;28;20133;-84
2023/12/26 18:49:18;;;;;;;4.88;1.58;;;;;;;;;;5772050;28;20051;-85
2023/12/26 18:52:09;;;;;;;2.50;1.65;;;;;;;;;;5770580;28;20066;-83
2023/12/26 18:55:01;;;;;;;5.53;1.38;;;;;;;;;;5772738;28;20125;-84
2023/12/26 18:57:52;;;;;;;5.53;2.20;;;;;;;;;;5770965;28;20497;-84
2023/12/26 19:00:44;;;;;;;4.28;1.70;;;;;;;;;;5755014;28;20051;-84
2023/12/26 19:03:35;;;;;;;1.80;1.70;;;;;;;;;;5770548;28;20469;-84
2023/12/26 19:06:26;;;;;;;4.78;2.53;;;;;;;;;;5770513;28;20047;-84
2023/12/26 19:09:19;;;;;;;2.28;1.85;;;;;;;;;;5754859;28;20058;-83
2023/12/26 19:12:10;;;;;;;4.68;2.38;;;;;;;;;;5770299;28;20094;-83
2023/12/26 19:15:02;;;;;;;3.65;2.40;;;;;;;;;;5771687;28;20055;-82
2023/12/26 19:17:53;;;;;;;6.80;2.50;;;;;;;;;;5754916;28;20464;-84
2023/12/26 19:20:44;;;;;;;2.30;2.08;;;;;;;;;;5770083;28;20051;-84
2023/12/26 19:23:39;;;;;;;8.32;3.05;;;;;;;;;;5770031;28;20437;-84
2023/12/26 19:26:30;;;;;;;2.42;1.48;;;;;;;;;;5770278;28;20489;-84
2023/12/26 19:29:21;;;;;;;1.75;1.63;;;;;;;;;;5771351;28;20130;-83
2023/12/26 19:32:12;;;;;;;3.60;2.33;;;;;;;;;;5771449;28;20062;-83
2023/12/26 19:35:03;;;;;;;2.00;1.85;;;;;;;;;;5770148;28;20074;-83
2023/12/26 19:37:56;;;;;;;2.45;2.00;;;;;;;;;;5754733;28;20162;-84
2023/12/26 19:40:48;;;;;;;1.75;1.65;;;;;;;;;;5769868;28;20110;-83
2023/12/26 19:43:39;;;;;;;4.07;1.67;;;;;;;;;;5770073;28;20130;-83
2023/12/26 19:46:29;;;;;;;5.60;1.67;;;;;;;;;;5754031;28;20154;-83
2023/12/26 19:49:21;;;;;;;5.57;2.47;;;;;;;;;;5770160;28;20529;-83
2023/12/26 19:52:12;;;;;;;2.67;2.30;;;;;;;;;;5771253;28;20077;-83
2023/12/26 19:55:04;;;;;;;6.78;3.35;;;;;;;;;;5774222;28;20051;-83
2023/12/26 19:57:55;;;;;;;2.63;2.08;;;;;;;;;;5774984;28;20488;-84
2023/12/26 20:00:47;;;;;;;1.48;1.35;;;;;;;;;;5774790;28;20573;-83
2023/12/26 20:03:38;;;;;;;2.88;1.48;;;;;;;;;;5758494;28;20074;-83
2023/12/26 20:06:29;;;;;;;1.38;1.27;;;;;;;;;;5774580;28;20070;-84
2023/12/26 20:09:22;;;;;;;5.50;1.42;;;;;;;;;;5774665;28;20514;-82
2023/12/26 20:12:13;;;;;;;1.25;0.82;;;;;;;;;;5774296;28;20051;-84
2023/12/26 20:15:05;;;;;;;5.28;2.58;;;;;;;;;;5790299;28;20043;-84